Boa Esperanca, Brazil
Current Conditions -  °F | °C
As of 11:00 AM on Sunday 23 Nov 2014 (Local Time) from SBMG Reporting Station
Broken Clouds Broken Clouds  
Wind Chill: 77°   Ceiling: 1700
Heat Index: 79°   Visibility: 6mi
Dew Point: 68°   Wind: 5mph
Humidity: 74%   Direction: 40°NE
Pressure: 29.97"   Gusts: NA
Location:  24.24°S, 52.79°W
Report Text: SBMG 231300Z 04004KT 9999 FEW010 BKN017 25/20 Q1015
Loading
Personal Weather Stations






























Interactive Weather Map New forecast layout! Learn more

10-Day Weather Forecast

Advertisements
Track Severe Weather on mobile